sensor_id;sensor_type;location;lat;lon;timestamp;pressure;altitude;pressure_sealevel;temperature;humidity
52441;BME280;39611;46.062;8.950;2023-03-14T00:00:50;95569.22;;;9.71;100.00
52441;BME280;39611;46.062;8.950;2023-03-14T00:03:17;95565.16;;;9.59;100.00
52441;BME280;39611;46.062;8.950;2023-03-14T00:05:44;95562.75;;;9.63;100.00
52441;BME280;39611;46.062;8.950;2023-03-14T00:08:10;95553.16;;;9.67;100.00
52441;BME280;39611;46.062;8.950;2023-03-14T00:10:37;95541.63;;;9.63;100.00
52441;BME280;39611;46.062;8.950;2023-03-14T00:13:04;95519.31;;;9.69;100.00
52441;BME280;39611;46.062;8.950;2023-03-14T00:15:35;95504.34;;;9.65;100.00
52441;BME280;39611;46.062;8.950;2023-03-14T00:18:01;95495.13;;;9.62;100.00
52441;BME280;39611;46.062;8.950;2023-03-14T00:20:28;95501.84;;;9.73;100.00
52441;BME280;39611;46.062;8.950;2023-03-14T00:22:54;95494.97;;;9.72;100.00
52441;BME280;39611;46.062;8.950;2023-03-14T00:25:21;95482.66;;;9.68;100.00
52441;BME280;39611;46.062;8.950;2023-03-14T00:27:50;95479.81;;;9.64;100.00
52441;BME280;39611;46.062;8.950;2023-03-14T00:30:16;95468.47;;;9.63;100.00
52441;BME280;39611;46.062;8.950;2023-03-14T00:32:43;95449.88;;;9.69;100.00
52441;BME280;39611;46.062;8.950;2023-03-14T00:35:10;95453.41;;;9.64;100.00
52441;BME280;39611;46.062;8.950;2023-03-14T00:37:36;95441.97;;;9.69;100.00
52441;BME280;39611;46.062;8.950;2023-03-14T00:40:03;95420.94;;;9.77;100.00
52441;BME280;39611;46.062;8.950;2023-03-14T00:42:32;95409.41;;;9.73;100.00
52441;BME280;39611;46.062;8.950;2023-03-14T00:44:59;95404.31;;;9.63;100.00
52441;BME280;39611;46.062;8.950;2023-03-14T00:47:25;95410.00;;;9.70;100.00
52441;BME280;39611;46.062;8.950;2023-03-14T00:49:52;95414.28;;;9.66;100.00
52441;BME280;39611;46.062;8.950;2023-03-14T00:52:18;95410.28;;;9.55;100.00
52441;BME280;39611;46.062;8.950;2023-03-14T00:54:44;95397.75;;;9.60;100.00
52441;BME280;39611;46.062;8.950;2023-03-14T00:57:11;95407.44;;;9.65;100.00
52441;BME280;39611;46.062;8.950;2023-03-14T00:59:37;95415.47;;;9.60;100.00
52441;BME280;39611;46.062;8.950;2023-03-14T01:02:04;95418.56;;;9.62;100.00
52441;BME280;39611;46.062;8.950;2023-03-14T01:04:30;95424.34;;;9.64;100.00
52441;BME280;39611;46.062;8.950;2023-03-14T01:06:57;95434.72;;;9.74;100.00
52441;BME280;39611;46.062;8.950;2023-03-14T01:09:24;95438.06;;;9.66;100.00
52441;BME280;39611;46.062;8.950;2023-03-14T01:11:50;95417.34;;;9.73;100.00
52441;BME280;39611;46.062;8.950;2023-03-14T01:14:16;95419.38;;;9.76;100.00
52441;BME280;39611;46.062;8.950;2023-03-14T01:16:43;95415.47;;;9.74;100.00
52441;BME280;39611;46.062;8.950;2023-03-14T01:19:09;95409.00;;;9.66;100.00
52441;BME280;39611;46.062;8.950;2023-03-14T01:21:36;95398.44;;;9.66;100.00
52441;BME280;39611;46.062;8.950;2023-03-14T01:24:04;95389.47;;;9.81;100.00
52441;BME280;39611;46.062;8.950;2023-03-14T01:26:33;95387.19;;;9.74;100.00
52441;BME280;39611;46.062;8.950;2023-03-14T01:29:00;95403.72;;;9.52;100.00
52441;BME280;39611;46.062;8.950;2023-03-14T01:31:27;95388.44;;;9.49;100.00
52441;BME280;39611;46.062;8.950;2023-03-14T01:33:54;95360.97;;;9.64;100.00
52441;BME280;39611;46.062;8.950;2023-03-14T01:36:20;95353.25;;;9.54;100.00
52441;BME280;39611;46.062;8.950;2023-03-14T01:38:47;95355.59;;;9.41;100.00
52441;BME280;39611;46.062;8.950;2023-03-14T01:41:21;95360.31;;;9.45;100.00
52441;BME280;39611;46.062;8.950;2023-03-14T01:43:47;95368.59;;;9.52;100.00
52441;BME280;39611;46.062;8.950;2023-03-14T01:46:32;95358.66;;;9.62;100.00
52441;BME280;39611;46.062;8.950;2023-03-14T01:49:23;95350.13;;;9.66;100.00
52441;BME280;39611;46.062;8.950;2023-03-14T01:52:02;95339.97;;;9.59;100.00
52441;BME280;39611;46.062;8.950;2023-03-14T01:54:40;95337.31;;;9.59;100.00
52441;BME280;39611;46.062;8.950;2023-03-14T01:57:12;95347.00;;;9.50;100.00
52441;BME280;39611;46.062;8.950;2023-03-14T01:59:43;95337.59;;;9.44;100.00
52441;BME280;39611;46.062;8.950;2023-03-14T02:02:13;95332.03;;;9.59;100.00
52441;BME280;39611;46.062;8.950;2023-03-14T02:04:41;95318.34;;;9.71;100.00
52441;BME280;39611;46.062;8.950;2023-03-14T02:09:40;95304.69;;;9.55;100.00
52441;BME280;39611;46.062;8.950;2023-03-14T02:12:09;95303.59;;;9.42;100.00
52441;BME280;39611;46.062;8.950;2023-03-14T02:14:37;95308.09;;;9.28;100.00
52441;BME280;39611;46.062;8.950;2023-03-14T02:17:06;95292.16;;;9.33;100.00
52441;BME280;39611;46.062;8.950;2023-03-14T02:22:21;95327.31;;;9.14;100.00
52441;BME280;39611;46.062;8.950;2023-03-14T02:25:00;95342.19;;;9.24;100.00
52441;BME280;39611;46.062;8.950;2023-03-14T02:27:30;95346.75;;;9.05;100.00
52441;BME280;39611;46.062;8.950;2023-03-14T02:30:08;95354.56;;;8.96;100.00
52441;BME280;39611;46.062;8.950;2023-03-14T02:32:38;95341.44;;;8.91;100.00
52441;BME280;39611;46.062;8.950;2023-03-14T02:35:09;95345.44;;;9.21;100.00
52441;BME280;39611;46.062;8.950;2023-03-14T02:37:41;95375.59;;;9.15;100.00
52441;BME280;39611;46.062;8.950;2023-03-14T02:40:09;95372.31;;;8.90;100.00
52441;BME280;39611;46.062;8.950;2023-03-14T02:42:36;95373.19;;;9.00;100.00
52441;BME280;39611;46.062;8.950;2023-03-14T02:47:37;95361.94;;;8.80;100.00
52441;BME280;39611;46.062;8.950;2023-03-14T02:50:15;95360.66;;;8.78;100.00
52441;BME280;39611;46.062;8.950;2023-03-14T02:52:42;95358.66;;;8.69;100.00
52441;BME280;39611;46.062;8.950;2023-03-14T02:55:09;95351.75;;;8.73;100.00
52441;BME280;39611;46.062;8.950;2023-03-14T02:57:35;95338.44;;;8.65;100.00
52441;BME280;39611;46.062;8.950;2023-03-14T03:00:03;95328.94;;;8.64;100.00
52441;BME280;39611;46.062;8.950;2023-03-14T03:02:33;95326.69;;;8.57;100.00
52441;BME280;39611;46.062;8.950;2023-03-14T03:04:59;95316.50;;;8.50;100.00
52441;BME280;39611;46.062;8.950;2023-03-14T03:07:26;95307.69;;;8.41;100.00
52441;BME280;39611;46.062;8.950;2023-03-14T03:09:52;95293.13;;;8.25;100.00
52441;BME280;39611;46.062;8.950;2023-03-14T03:12:18;95289.56;;;8.35;100.00
52441;BME280;39611;46.062;8.950;2023-03-14T03:14:45;95291.94;;;8.36;100.00
52441;BME280;39611;46.062;8.950;2023-03-14T03:17:11;95288.31;;;8.32;100.00
52441;BME280;39611;46.062;8.950;2023-03-14T03:19:38;95292.72;;;8.37;100.00
52441;BME280;39611;46.062;8.950;2023-03-14T03:22:05;95299.22;;;8.25;100.00
52441;BME280;39611;46.062;8.950;2023-03-14T03:24:31;95298.44;;;8.44;100.00
52441;BME280;39611;46.062;8.950;2023-03-14T03:26:57;95302.97;;;8.38;100.00
52441;BME280;39611;46.062;8.950;2023-03-14T03:29:24;95298.41;;;8.25;100.00
52441;BME280;39611;46.062;8.950;2023-03-14T03:31:50;95299.00;;;8.22;100.00
52441;BME280;39611;46.062;8.950;2023-03-14T03:34:17;95294.28;;;8.38;100.00
52441;BME280;39611;46.062;8.950;2023-03-14T03:36:43;95277.06;;;8.45;100.00
52441;BME280;39611;46.062;8.950;2023-03-14T03:39:09;95271.66;;;8.18;100.00
52441;BME280;39611;46.062;8.950;2023-03-14T03:41:36;95265.25;;;8.24;100.00
52441;BME280;39611;46.062;8.950;2023-03-14T03:44:02;95260.16;;;8.27;100.00
52441;BME280;39611;46.062;8.950;2023-03-14T03:46:29;95257.84;;;8.26;100.00
52441;BME280;39611;46.062;8.950;2023-03-14T03:48:57;95257.97;;;8.35;100.00
52441;BME280;39611;46.062;8.950;2023-03-14T03:51:24;95255.22;;;8.26;100.00
52441;BME280;39611;46.062;8.950;2023-03-14T03:53:51;95253.34;;;8.26;100.00
52441;BME280;39611;46.062;8.950;2023-03-14T03:56:17;95259.63;;;8.30;100.00
52441;BME280;39611;46.062;8.950;2023-03-14T03:58:44;95264.16;;;8.25;100.00
52441;BME280;39611;46.062;8.950;2023-03-14T04:01:11;95258.41;;;8.23;100.00
52441;BME280;39611;46.062;8.950;2023-03-14T04:03:37;95258.91;;;8.25;100.00
52441;BME280;39611;46.062;8.950;2023-03-14T04:06:10;95264.66;;;8.27;100.00
52441;BME280;39611;46.062;8.950;2023-03-14T04:08:37;95267.13;;;8.04;100.00
52441;BME280;39611;46.062;8.950;2023-03-14T04:11:04;95268.03;;;8.14;100.00
52441;BME280;39611;46.062;8.950;2023-03-14T04:13:31;95258.19;;;8.19;100.00
52441;BME280;39611;46.062;8.950;2023-03-14T04:15:57;95263.09;;;8.26;100.00
52441;BME280;39611;46.062;8.950;2023-03-14T04:18:24;95266.31;;;8.23;100.00
52441;BME280;39611;46.062;8.950;2023-03-14T04:20:57;95257.84;;;8.26;100.00
52441;BME280;39611;46.062;8.950;2023-03-14T04:23:24;95245.69;;;8.11;100.00
52441;BME280;39611;46.062;8.950;2023-03-14T04:25:51;95252.88;;;8.05;100.00
52441;BME280;39611;46.062;8.950;2023-03-14T04:28:18;95248.47;;;8.20;100.00
52441;BME280;39611;46.062;8.950;2023-03-14T04:30:45;95241.63;;;8.19;100.00
52441;BME280;39611;46.062;8.950;2023-03-14T04:33:11;95253.88;;;8.09;100.00
52441;BME280;39611;46.062;8.950;2023-03-14T04:35:40;95254.44;;;8.06;100.00
52441;BME280;39611;46.062;8.950;2023-03-14T04:38:06;95257.78;;;8.12;100.00
52441;BME280;39611;46.062;8.950;2023-03-14T04:40:33;95255.22;;;8.26;100.00
52441;BME280;39611;46.062;8.950;2023-03-14T04:42:59;95256.44;;;8.15;100.00
52441;BME280;39611;46.062;8.950;2023-03-14T04:45:26;95252.44;;;7.98;100.00
52441;BME280;39611;46.062;8.950;2023-03-14T04:47:52;95256.16;;;7.97;100.00
52441;BME280;39611;46.062;8.950;2023-03-14T04:50:18;95250.44;;;8.09;100.00
52441;BME280;39611;46.062;8.950;2023-03-14T04:52:45;95249.59;;;8.14;100.00
52441;BME280;39611;46.062;8.950;2023-03-14T04:55:11;95256.88;;;8.03;100.00
52441;BME280;39611;46.062;8.950;2023-03-14T04:57:38;95247.09;;;8.03;100.00
52441;BME280;39611;46.062;8.950;2023-03-14T05:00:05;95247.63;;;8.05;100.00
52441;BME280;39611;46.062;8.950;2023-03-14T05:02:33;95224.34;;;8.13;100.00
52441;BME280;39611;46.062;8.950;2023-03-14T05:04:59;95223.31;;;8.08;100.00
52441;BME280;39611;46.062;8.950;2023-03-14T05:07:26;95216.59;;;8.02;100.00
52441;BME280;39611;46.062;8.950;2023-03-14T05:09:52;95213.22;;;8.16;100.00
52441;BME280;39611;46.062;8.950;2023-03-14T05:12:20;95208.25;;;7.95;100.00
52441;BME280;39611;46.062;8.950;2023-03-14T05:14:46;95207.34;;;7.86;100.00
52441;BME280;39611;46.062;8.950;2023-03-14T05:17:14;95189.81;;;7.95;100.00
52441;BME280;39611;46.062;8.950;2023-03-14T05:19:41;95160.03;;;8.14;100.00
52441;BME280;39611;46.062;8.950;2023-03-14T05:22:07;95142.06;;;8.02;100.00
52441;BME280;39611;46.062;8.950;2023-03-14T05:24:34;95104.97;;;7.84;100.00
52441;BME280;39611;46.062;8.950;2023-03-14T05:27:00;95069.53;;;7.77;100.00
52441;BME280;39611;46.062;8.950;2023-03-14T05:29:26;95033.78;;;8.03;100.00
52441;BME280;39611;46.062;8.950;2023-03-14T05:31:53;95030.00;;;8.09;100.00
52441;BME280;39611;46.062;8.950;2023-03-14T05:34:19;95025.41;;;8.01;100.00
52441;BME280;39611;46.062;8.950;2023-03-14T05:36:46;95024.53;;;8.06;100.00
52441;BME280;39611;46.062;8.950;2023-03-14T05:39:12;95018.59;;;8.00;100.00
52441;BME280;39611;46.062;8.950;2023-03-14T05:41:39;95022.69;;;8.06;100.00
52441;BME280;39611;46.062;8.950;2023-03-14T05:44:05;95034.41;;;7.68;100.00
52441;BME280;39611;46.062;8.950;2023-03-14T05:46:32;95055.09;;;7.60;100.00
52441;BME280;39611;46.062;8.950;2023-03-14T05:48:58;95071.59;;;7.80;100.00
52441;BME280;39611;46.062;8.950;2023-03-14T05:51:26;95085.19;;;7.87;100.00
52441;BME280;39611;46.062;8.950;2023-03-14T05:53:52;95073.28;;;7.90;100.00
52441;BME280;39611;46.062;8.950;2023-03-14T05:56:19;95082.81;;;7.85;100.00
52441;BME280;39611;46.062;8.950;2023-03-14T05:58:45;95106.75;;;8.03;100.00
52441;BME280;39611;46.062;8.950;2023-03-14T06:01:11;95119.00;;;7.94;100.00
52441;BME280;39611;46.062;8.950;2023-03-14T06:03:38;95140.31;;;7.97;100.00
52441;BME280;39611;46.062;8.950;2023-03-14T06:06:04;95151.72;;;8.06;100.00
52441;BME280;39611;46.062;8.950;2023-03-14T06:08:31;95162.91;;;7.98;100.00
52441;BME280;39611;46.062;8.950;2023-03-14T06:10:57;95174.72;;;8.01;100.00
52441;BME280;39611;46.062;8.950;2023-03-14T06:13:24;95180.53;;;8.17;100.00
52441;BME280;39611;46.062;8.950;2023-03-14T06:15:50;95180.75;;;8.20;100.00
52441;BME280;39611;46.062;8.950;2023-03-14T06:18:17;95188.19;;;8.32;100.00
52441;BME280;39611;46.062;8.950;2023-03-14T06:20:43;95198.00;;;8.13;100.00
52441;BME280;39611;46.062;8.950;2023-03-14T06:23:10;95189.78;;;8.14;100.00
52441;BME280;39611;46.062;8.950;2023-03-14T06:25:37;95198.09;;;8.21;100.00
52441;BME280;39611;46.062;8.950;2023-03-14T06:28:03;95192.06;;;8.21;100.00
52441;BME280;39611;46.062;8.950;2023-03-14T06:30:30;95189.69;;;8.19;100.00
52441;BME280;39611;46.062;8.950;2023-03-14T06:32:56;95186.00;;;8.39;100.00
52441;BME280;39611;46.062;8.950;2023-03-14T06:35:23;95185.34;;;8.28;100.00
52441;BME280;39611;46.062;8.950;2023-03-14T06:37:49;95188.69;;;8.34;100.00
52441;BME280;39611;46.062;8.950;2023-03-14T06:40:16;95189.03;;;8.46;100.00
52441;BME280;39611;46.062;8.950;2023-03-14T06:42:44;95194.88;;;8.43;100.00
52441;BME280;39611;46.062;8.950;2023-03-14T06:45:11;95191.50;;;8.38;100.00
52441;BME280;39611;46.062;8.950;2023-03-14T06:47:38;95190.72;;;8.37;100.00
52441;BME280;39611;46.062;8.950;2023-03-14T06:50:08;95183.19;;;8.63;100.00
52441;BME280;39611;46.062;8.950;2023-03-14T06:52:35;95178.50;;;8.46;100.00
52441;BME280;39611;46.062;8.950;2023-03-14T06:55:02;95171.78;;;8.35;100.00
52441;BME280;39611;46.062;8.950;2023-03-14T06:57:29;95177.63;;;8.32;100.00
52441;BME280;39611;46.062;8.950;2023-03-14T06:59:55;95177.38;;;8.34;100.00
52441;BME280;39611;46.062;8.950;2023-03-14T07:02:22;95175.19;;;8.22;100.00
52441;BME280;39611;46.062;8.950;2023-03-14T07:05:07;95160.66;;;8.24;100.00
52441;BME280;39611;46.062;8.950;2023-03-14T07:07:34;95157.16;;;8.29;100.00
52441;BME280;39611;46.062;8.950;2023-03-14T07:10:00;95159.28;;;8.27;100.00
52441;BME280;39611;46.062;8.950;2023-03-14T07:12:27;95159.38;;;8.22;100.00
52441;BME280;39611;46.062;8.950;2023-03-14T07:14:53;95167.78;;;8.24;100.00
52441;BME280;39611;46.062;8.950;2023-03-14T07:17:20;95159.44;;;8.17;100.00
52441;BME280;39611;46.062;8.950;2023-03-14T07:19:46;95162.09;;;8.17;100.00
52441;BME280;39611;46.062;8.950;2023-03-14T07:22:13;95166.31;;;8.31;100.00
52441;BME280;39611;46.062;8.950;2023-03-14T07:24:39;95163.78;;;8.26;100.00
52441;BME280;39611;46.062;8.950;2023-03-14T07:27:05;95162.31;;;8.34;100.00
52441;BME280;39611;46.062;8.950;2023-03-14T07:29:34;95165.56;;;8.31;100.00
52441;BME280;39611;46.062;8.950;2023-03-14T07:32:01;95171.72;;;8.40;100.00
52441;BME280;39611;46.062;8.950;2023-03-14T07:34:27;95180.53;;;8.49;100.00
52441;BME280;39611;46.062;8.950;2023-03-14T07:36:53;95189.03;;;8.46;100.00
52441;BME280;39611;46.062;8.950;2023-03-14T07:39:20;95186.81;;;8.35;100.00
52441;BME280;39611;46.062;8.950;2023-03-14T07:41:46;95181.72;;;8.24;100.00
52441;BME280;39611;46.062;8.950;2023-03-14T07:44:13;95182.69;;;8.15;100.00
52441;BME280;39611;46.062;8.950;2023-03-14T07:46:39;95178.22;;;8.29;100.00
52441;BME280;39611;46.062;8.950;2023-03-14T07:49:06;95179.28;;;8.47;100.00
52441;BME280;39611;46.062;8.950;2023-03-14T07:51:32;95184.03;;;8.45;100.00
52441;BME280;39611;46.062;8.950;2023-03-14T07:53:58;95187.94;;;8.47;100.00
52441;BME280;39611;46.062;8.950;2023-03-14T07:56:25;95194.09;;;8.43;100.00
52441;BME280;39611;46.062;8.950;2023-03-14T07:58:51;95207.31;;;8.38;100.00
52441;BME280;39611;46.062;8.950;2023-03-14T08:01:18;95210.03;;;8.32;100.00
52441;BME280;39611;46.062;8.950;2023-03-14T08:03:44;95218.53;;;8.29;100.00
52441;BME280;39611;46.062;8.950;2023-03-14T08:06:10;95229.56;;;8.31;100.00
52441;BME280;39611;46.062;8.950;2023-03-14T08:08:37;95235.69;;;8.46;100.00
52441;BME280;39611;46.062;8.950;2023-03-14T08:11:05;95251.34;;;8.37;100.00
52441;BME280;39611;46.062;8.950;2023-03-14T08:13:36;95247.38;;;8.40;100.00
52441;BME280;39611;46.062;8.950;2023-03-14T08:16:03;95243.44;;;8.37;100.00
52441;BME280;39611;46.062;8.950;2023-03-14T08:18:30;95240.38;;;8.49;100.00
52441;BME280;39611;46.062;8.950;2023-03-14T08:20:57;95230.81;;;8.53;100.00
52441;BME280;39611;46.062;8.950;2023-03-14T08:23:24;95225.97;;;8.74;100.00
52441;BME280;39611;46.062;8.950;2023-03-14T08:25:50;95225.78;;;8.70;100.00
52441;BME280;39611;46.062;8.950;2023-03-14T08:28:17;95217.38;;;8.68;100.00
52441;BME280;39611;46.062;8.950;2023-03-14T08:30:44;95217.38;;;8.68;100.00
52441;BME280;39611;46.062;8.950;2023-03-14T08:33:13;95222.47;;;8.79;100.00
52441;BME280;39611;46.062;8.950;2023-03-14T08:35:39;95218.75;;;8.80;100.00
52441;BME280;39611;46.062;8.950;2023-03-14T08:38:06;95214.75;;;8.82;100.00
52441;BME280;39611;46.062;8.950;2023-03-14T08:40:32;95214.09;;;8.90;100.00
52441;BME280;39611;46.062;8.950;2023-03-14T08:42:58;95215.34;;;8.93;100.00
52441;BME280;39611;46.062;8.950;2023-03-14T08:45:25;95226.59;;;8.99;100.00
52441;BME280;39611;46.062;8.950;2023-03-14T08:47:51;95226.00;;;9.02;100.00
52441;BME280;39611;46.062;8.950;2023-03-14T08:50:18;95214.28;;;9.22;100.00
52441;BME280;39611;46.062;8.950;2023-03-14T08:52:44;95216.50;;;9.28;100.00
52441;BME280;39611;46.062;8.950;2023-03-14T08:55:11;95209.47;;;9.10;100.00
52441;BME280;39611;46.062;8.950;2023-03-14T08:57:37;95204.41;;;9.13;100.00
52441;BME280;39611;46.062;8.950;2023-03-14T09:00:05;95207.41;;;9.21;100.00
52441;BME280;39611;46.062;8.950;2023-03-14T09:02:41;95205.28;;;9.23;100.00
52441;BME280;39611;46.062;8.950;2023-03-14T09:05:09;95204.69;;;9.39;100.00
52441;BME280;39611;46.062;8.950;2023-03-14T09:07:37;95208.69;;;9.09;100.00
52441;BME280;39611;46.062;8.950;2023-03-14T09:10:04;95205.69;;;9.16;100.00
52441;BME280;39611;46.062;8.950;2023-03-14T09:12:30;95209.78;;;9.22;100.00
52441;BME280;39611;46.062;8.950;2023-03-14T09:14:57;95207.78;;;9.41;100.00
52441;BME280;39611;46.062;8.950;2023-03-14T09:17:23;95195.66;;;9.40;100.00
52441;BME280;39611;46.062;8.950;2023-03-14T09:19:49;95197.00;;;9.52;100.00
52441;BME280;39611;46.062;8.950;2023-03-14T09:22:16;95194.25;;;9.57;100.00
52441;BME280;39611;46.062;8.950;2023-03-14T09:24:42;95184.84;;;9.78;100.00
52441;BME280;39611;46.062;8.950;2023-03-14T09:27:09;95189.50;;;9.81;100.00
52441;BME280;39611;46.062;8.950;2023-03-14T09:29:35;95182.63;;;9.58;100.00
52441;BME280;39611;46.062;8.950;2023-03-14T09:32:02;95189.75;;;9.71;100.00
52441;BME280;39611;46.062;8.950;2023-03-14T09:34:29;95189.41;;;9.87;100.00
52441;BME280;39611;46.062;8.950;2023-03-14T09:36:55;95187.38;;;9.83;100.00
52441;BME280;39611;46.062;8.950;2023-03-14T09:39:23;95179.91;;;9.85;100.00
52441;BME280;39611;46.062;8.950;2023-03-14T09:41:52;95178.38;;;10.07;100.00
52441;BME280;39611;46.062;8.950;2023-03-14T09:44:35;95178.91;;;10.40;100.00
52441;BME280;39611;46.062;8.950;2023-03-14T09:47:12;95178.81;;;10.54;100.00
52441;BME280;39611;46.062;8.950;2023-03-14T09:49:40;95170.25;;;10.48;100.00
52441;BME280;39611;46.062;8.950;2023-03-14T09:52:24;95162.50;;;10.61;100.00
52441;BME280;39611;46.062;8.950;2023-03-14T09:55:14;95157.28;;;10.78;100.00
52441;BME280;39611;46.062;8.950;2023-03-14T09:57:41;95178.44;;;10.69;96.02
52441;BME280;39611;46.062;8.950;2023-03-14T10:00:16;95183.78;;;10.56;98.98
52441;BME280;39611;46.062;8.950;2023-03-14T10:02:53;95181.06;;;10.69;100.00
52441;BME280;39611;46.062;8.950;2023-03-14T10:05:22;95179.97;;;10.70;100.00
52441;BME280;39611;46.062;8.950;2023-03-14T10:07:48;95183.44;;;10.80;100.00
52441;BME280;39611;46.062;8.950;2023-03-14T10:10:24;95177.31;;;10.70;100.00
52441;BME280;39611;46.062;8.950;2023-03-14T10:13:10;95181.56;;;10.71;100.00
52441;BME280;39611;46.062;8.950;2023-03-14T10:15:38;95170.00;;;10.67;100.00
52441;BME280;39611;46.062;8.950;2023-03-14T10:18:11;95172.38;;;10.78;100.00
52441;BME280;39611;46.062;8.950;2023-03-14T10:20:44;95167.88;;;10.78;100.00
52441;BME280;39611;46.062;8.950;2023-03-14T10:25:40;95146.59;;;10.52;100.00
52441;BME280;39611;46.062;8.950;2023-03-14T10:28:25;95137.97;;;10.69;100.00
52441;BME280;39611;46.062;8.950;2023-03-14T10:30:52;95139.09;;;10.77;100.00
52441;BME280;39611;46.062;8.950;2023-03-14T10:35:45;95142.38;;;10.82;100.00
52441;BME280;39611;46.062;8.950;2023-03-14T10:38:15;95142.66;;;10.81;94.12
52441;BME280;39611;46.062;8.950;2023-03-14T10:40:50;95147.75;;;11.08;96.99
52441;BME280;39611;46.062;8.950;2023-03-14T10:43:22;95150.38;;;11.08;95.10
52441;BME280;39611;46.062;8.950;2023-03-14T10:46:02;95140.25;;;11.02;90.39
52441;BME280;39611;46.062;8.950;2023-03-14T10:51:10;95133.56;;;11.04;89.69
52441;BME280;39611;46.062;8.950;2023-03-14T10:56:07;95134.22;;;11.36;93.04
52441;BME280;39611;46.062;8.950;2023-03-14T10:58:40;95138.13;;;11.30;89.52
52441;BME280;39611;46.062;8.950;2023-03-14T11:07:09;95129.28;;;11.61;90.63
52441;BME280;39611;46.062;8.950;2023-03-14T11:09:52;95128.16;;;11.62;90.85
52441;BME280;39611;46.062;8.950;2023-03-14T11:15:24;95139.06;;;11.77;90.07
52441;BME280;39611;46.062;8.950;2023-03-14T11:21:13;95137.19;;;11.43;87.94
52441;BME280;39611;46.062;8.950;2023-03-14T11:26:37;95126.16;;;11.50;89.72
52441;BME280;39611;46.062;8.950;2023-03-14T11:29:19;95125.69;;;11.65;90.79
52441;BME280;39611;46.062;8.950;2023-03-14T11:31:47;95130.84;;;11.70;87.21
52441;BME280;39611;46.062;8.950;2023-03-14T11:34:37;95131.13;;;11.77;85.57
52441;BME280;39611;46.062;8.950;2023-03-14T11:37:10;95130.81;;;11.79;85.67
52441;BME280;39611;46.062;8.950;2023-03-14T11:39:41;95125.06;;;11.59;85.65
52441;BME280;39611;46.062;8.950;2023-03-14T11:42:15;95118.84;;;11.55;84.86
52441;BME280;39611;46.062;8.950;2023-03-14T11:44:46;95125.06;;;11.77;88.34
52441;BME280;39611;46.062;8.950;2023-03-14T11:47:22;95113.81;;;11.80;87.19
52441;BME280;39611;46.062;8.950;2023-03-14T11:49:55;95103.88;;;11.86;87.98
52441;BME280;39611;46.062;8.950;2023-03-14T11:52:34;95105.44;;;11.87;89.76
52441;BME280;39611;46.062;8.950;2023-03-14T11:57:38;95104.50;;;11.91;88.81
52441;BME280;39611;46.062;8.950;2023-03-14T12:00:20;95093.13;;;11.91;88.64
52441;BME280;39611;46.062;8.950;2023-03-14T12:05:46;95080.31;;;11.84;85.00
52441;BME280;39611;46.062;8.950;2023-03-14T12:11:12;95065.03;;;11.98;84.01
52441;BME280;39611;46.062;8.950;2023-03-14T12:13:41;95058.97;;;12.07;87.92
52441;BME280;39611;46.062;8.950;2023-03-14T12:18:51;95049.59;;;12.00;81.83
52441;BME280;39611;46.062;8.950;2023-03-14T12:21:19;95053.81;;;12.01;83.97
52441;BME280;39611;46.062;8.950;2023-03-14T12:23:51;95048.81;;;12.00;80.70
52441;BME280;39611;46.062;8.950;2023-03-14T12:42:54;95026.63;;;12.22;80.14
52441;BME280;39611;46.062;8.950;2023-03-14T12:45:24;95029.66;;;12.41;80.06
52441;BME280;39611;46.062;8.950;2023-03-14T12:48:00;95028.66;;;12.55;82.20
52441;BME280;39611;46.062;8.950;2023-03-14T12:50:35;95025.03;;;12.59;83.94
52441;BME280;39611;46.062;8.950;2023-03-14T12:58:38;95018.97;;;12.59;82.77
52441;BME280;39611;46.062;8.950;2023-03-14T13:01:05;95018.78;;;12.64;85.09
52441;BME280;39611;46.062;8.950;2023-03-14T13:04:09;95017.09;;;12.59;81.77
52441;BME280;39611;46.062;8.950;2023-03-14T13:06:47;95003.69;;;12.56;80.31
52441;BME280;39611;46.062;8.950;2023-03-14T13:12:01;94991.50;;;12.55;79.90
52441;BME280;39611;46.062;8.950;2023-03-14T13:14:29;94991.78;;;12.62;79.01
52441;BME280;39611;46.062;8.950;2023-03-14T13:17:00;94983.66;;;12.67;78.49
52441;BME280;39611;46.062;8.950;2023-03-14T13:19:50;94980.81;;;12.72;78.00
52441;BME280;39611;46.062;8.950;2023-03-14T13:22:26;94978.41;;;12.79;80.40
52441;BME280;39611;46.062;8.950;2023-03-14T13:25:05;94973.13;;;12.79;81.31
52441;BME280;39611;46.062;8.950;2023-03-14T13:27:34;94966.88;;;12.75;76.71
52441;BME280;39611;46.062;8.950;2023-03-14T13:30:22;94970.91;;;12.81;77.88
52441;BME280;39611;46.062;8.950;2023-03-14T13:32:50;94964.34;;;12.79;77.67
52441;BME280;39611;46.062;8.950;2023-03-14T13:35:44;94952.50;;;12.76;76.08
52441;BME280;39611;46.062;8.950;2023-03-14T13:38:19;94957.50;;;12.78;73.38
52441;BME280;39611;46.062;8.950;2023-03-14T13:40:46;94945.47;;;12.80;76.77
52441;BME280;39611;46.062;8.950;2023-03-14T13:43:39;94952.06;;;12.95;78.50
52441;BME280;39611;46.062;8.950;2023-03-14T13:46:13;94950.44;;;13.03;80.97
52441;BME280;39611;46.062;8.950;2023-03-14T13:48:46;94949.81;;;13.06;79.39
52441;BME280;39611;46.062;8.950;2023-03-14T13:51:15;94949.91;;;13.09;79.89
52441;BME280;39611;46.062;8.950;2023-03-14T13:53:48;94948.84;;;13.10;77.53
52441;BME280;39611;46.062;8.950;2023-03-14T13:56:19;94942.97;;;13.17;77.19
52441;BME280;39611;46.062;8.950;2023-03-14T13:58:46;94948.22;;;13.26;79.43
52441;BME280;39611;46.062;8.950;2023-03-14T14:01:16;94952.38;;;13.36;80.86
52441;BME280;39611;46.062;8.950;2023-03-14T14:03:47;94950.81;;;13.35;80.44
52441;BME280;39611;46.062;8.950;2023-03-14T14:08:44;94958.47;;;13.36;82.26
52441;BME280;39611;46.062;8.950;2023-03-14T14:11:21;94957.47;;;13.41;79.38
52441;BME280;39611;46.062;8.950;2023-03-14T14:13:53;94954.50;;;13.42;78.89
52441;BME280;39611;46.062;8.950;2023-03-14T14:16:24;94961.56;;;13.38;79.90
52441;BME280;39611;46.062;8.950;2023-03-14T14:18:53;94965.44;;;13.41;75.89
52441;BME280;39611;46.062;8.950;2023-03-14T14:21:20;94968.91;;;13.41;75.59